createdAt,value
2022-11-07T00:01:51.843Z,26.20
2022-11-07T00:04:18.933Z,24.55
2022-11-07T00:06:46.807Z,25.02
2022-11-07T00:09:13.883Z,24.48
2022-11-07T00:11:40.753Z,26.33
2022-11-07T00:14:07.790Z,26.00
2022-11-07T00:16:35.257Z,25.08
2022-11-07T00:19:05.574Z,25.23
2022-11-07T00:21:32.722Z,25.38
2022-11-07T00:24:02.456Z,24.33
2022-11-07T00:26:29.541Z,26.35
2022-11-07T00:28:56.678Z,25.52
2022-11-07T00:31:23.705Z,26.23
2022-11-07T00:33:51.096Z,25.42
2022-11-07T00:36:26.643Z,26.67
2022-11-07T00:38:54.471Z,26.23
2022-11-07T00:41:22.870Z,26.27
2022-11-07T00:43:50.190Z,29.25
2022-11-07T00:46:19.322Z,25.35
2022-11-07T00:48:47.395Z,28.65
2022-11-07T00:51:17.322Z,27.10
2022-11-07T00:53:47.670Z,26.38
2022-11-07T00:56:17.485Z,27.95
2022-11-07T00:58:44.609Z,28.10
2022-11-07T01:01:14.890Z,25.48
2022-11-07T01:04:00.048Z,26.77
2022-11-07T01:06:32.057Z,25.77
2022-11-07T01:08:59.673Z,27.90
2022-11-07T01:11:28.487Z,26.80
2022-11-07T01:13:57.205Z,25.92
2022-11-07T01:16:28.348Z,27.10
2022-11-07T01:18:58.576Z,22.48
2022-11-07T01:21:25.644Z,26.08
2022-11-07T01:23:52.627Z,26.00
2022-11-07T01:26:19.684Z,27.80
2022-11-07T01:28:46.732Z,26.67
2022-11-07T01:31:16.368Z,18.08
2022-11-07T01:33:44.342Z,25.75
2022-11-07T01:36:16.836Z,25.50
2022-11-07T01:38:46.674Z,28.45
2022-11-07T01:41:27.138Z,26.05
2022-11-07T01:44:02.060Z,26.35
2022-11-07T01:46:33.451Z,23.60
2022-11-07T01:49:25.904Z,25.98
2022-11-07T01:52:01.045Z,23.10
2022-11-07T01:54:35.926Z,26.30
2022-11-07T01:57:08.631Z,26.90
2022-11-07T01:59:37.593Z,23.90
2022-11-07T02:02:05.481Z,24.60
2022-11-07T02:04:32.700Z,24.67
2022-11-07T02:07:26.340Z,24.15
2022-11-07T02:09:54.504Z,24.75
2022-11-07T02:12:24.142Z,22.30
2022-11-07T02:14:51.704Z,24.80
2022-11-07T02:17:19.288Z,25.52
2022-11-07T02:19:56.136Z,24.20
2022-11-07T02:23:04.745Z,24.13
2022-11-07T02:25:31.705Z,26.90
2022-11-07T02:28:02.748Z,23.35
2022-11-07T02:30:34.714Z,23.23
2022-11-07T02:33:03.079Z,24.90
2022-11-07T02:35:32.575Z,23.77
2022-11-07T02:38:00.147Z,23.48
2022-11-07T02:40:30.590Z,21.23
2022-11-07T02:42:59.874Z,23.95
2022-11-07T02:45:30.330Z,24.75
2022-11-07T02:47:57.405Z,23.90
2022-11-07T02:50:24.573Z,24.98
2022-11-07T02:52:51.603Z,24.73
2022-11-07T02:55:18.502Z,25.10
2022-11-07T02:57:45.487Z,23.60
2022-11-07T03:00:13.943Z,23.92
2022-11-07T03:02:47.333Z,22.75
2022-11-07T03:05:19.437Z,25.30
2022-11-07T03:07:48.439Z,23.63
2022-11-07T03:10:17.158Z,23.98
2022-11-07T03:12:44.219Z,23.75
2022-11-07T03:15:12.263Z,24.10
2022-11-07T03:17:39.631Z,23.52
2022-11-07T03:20:08.149Z,24.45
2022-11-07T03:22:35.304Z,25.63
2022-11-07T03:25:02.337Z,22.92
2022-11-07T03:27:29.246Z,23.23
2022-11-07T03:29:56.198Z,22.92
2022-11-07T03:32:23.252Z,20.45
2022-11-07T03:34:50.431Z,24.00
2022-11-07T03:37:17.734Z,23.85
2022-11-07T03:39:45.964Z,23.70
2022-11-07T03:42:13.126Z,14.63
2022-11-07T03:44:40.826Z,23.90
2022-11-07T03:47:08.027Z,24.58
2022-11-07T03:49:35.003Z,21.63
2022-11-07T03:52:02.029Z,24.70
2022-11-07T03:54:28.995Z,23.33
2022-11-07T03:56:56.107Z,23.13
2022-11-07T03:59:28.174Z,23.33
2022-11-07T04:01:55.256Z,22.48
2022-11-07T04:04:22.342Z,22.13
2022-11-07T04:06:49.354Z,22.38
2022-11-07T04:09:16.661Z,22.00
2022-11-07T04:12:02.518Z,22.48
2022-11-07T04:15:01.711Z,21.20
2022-11-07T04:17:30.722Z,20.70
2022-11-07T04:19:57.642Z,22.27
2022-11-07T04:22:26.305Z,18.77
2022-11-07T04:24:53.461Z,21.63
2022-11-07T04:27:39.378Z,21.35
2022-11-07T04:30:22.636Z,20.33
2022-11-07T04:32:50.711Z,22.30
2022-11-07T04:35:18.761Z,20.80
2022-11-07T04:37:46.466Z,21.38
2022-11-07T04:40:13.726Z,19.83
2022-11-07T04:42:41.030Z,21.20
2022-11-07T04:45:08.391Z,21.33
2022-11-07T04:47:40.170Z,22.80
2022-11-07T04:50:10.974Z,20.58
2022-11-07T04:52:37.957Z,20.23
2022-11-07T04:55:06.900Z,18.80
2022-11-07T04:57:33.938Z,20.55
2022-11-07T05:00:01.025Z,20.30
2022-11-07T05:02:28.461Z,21.23
2022-11-07T05:04:55.482Z,19.80
2022-11-07T05:07:22.389Z,19.83
2022-11-07T05:09:49.328Z,19.83
2022-11-07T05:12:16.578Z,19.55
2022-11-07T05:14:43.520Z,18.75
2022-11-07T05:17:15.501Z,20.65
2022-11-07T05:19:45.598Z,19.10
2022-11-07T05:22:33.783Z,20.45
2022-11-07T05:25:04.001Z,18.35
2022-11-07T05:27:30.862Z,18.20
2022-11-07T05:29:57.911Z,17.02
2022-11-07T05:32:27.031Z,18.88
2022-11-07T05:34:54.158Z,19.35
2022-11-07T05:37:21.251Z,16.98
2022-11-07T05:39:54.809Z,18.55
2022-11-07T05:42:22.034Z,15.95
2022-11-07T05:44:49.954Z,18.45
2022-11-07T05:47:16.902Z,19.42
2022-11-07T05:49:43.928Z,18.55
2022-11-07T05:52:10.849Z,17.73
2022-11-07T05:54:37.811Z,14.32
2022-11-07T05:57:07.154Z,19.08
2022-11-07T05:59:38.055Z,18.30
2022-11-07T06:02:05.385Z,18.83
2022-11-07T06:04:38.022Z,18.40
2022-11-07T06:07:05.049Z,18.08
2022-11-07T06:09:31.946Z,13.90
2022-11-07T06:11:58.950Z,18.52
2022-11-07T06:14:28.684Z,18.08
2022-11-07T06:16:55.872Z,17.48
2022-11-07T06:19:22.958Z,18.73
2022-11-07T06:21:52.665Z,17.95
2022-11-07T06:24:24.742Z,17.38
2022-11-07T06:26:52.039Z,17.20
2022-11-07T06:29:19.143Z,17.05
2022-11-07T06:31:49.268Z,15.57
2022-11-07T06:34:17.877Z,16.95
2022-11-07T06:37:01.583Z,16.52
2022-11-07T06:39:48.598Z,15.88
2022-11-07T06:42:15.833Z,17.13
2022-11-07T06:44:43.409Z,16.90
2022-11-07T06:47:13.323Z,15.65
2022-11-07T06:49:49.652Z,17.15
2022-11-07T06:52:21.765Z,16.55
2022-11-07T06:54:49.044Z,17.13
2022-11-07T06:57:16.401Z,17.33
2022-11-07T06:59:47.667Z,16.52
2022-11-07T07:02:44.301Z,14.77
2022-11-07T07:05:08.525Z,15.43
2022-11-07T07:07:36.742Z,16.38
2022-11-07T07:10:04.287Z,16.92
2022-11-07T07:12:31.883Z,16.00
2022-11-07T07:14:59.398Z,17.33
2022-11-07T07:17:29.335Z,15.43
2022-11-07T07:19:56.432Z,16.40
2022-11-07T07:22:23.691Z,15.50
2022-11-07T07:27:37.804Z,15.50
2022-11-07T07:30:05.468Z,17.23
2022-11-07T07:32:35.153Z,16.95
2022-11-07T07:35:02.769Z,16.13
2022-11-07T07:37:30.294Z,16.92
2022-11-07T07:39:57.375Z,17.70
2022-11-07T07:42:25.039Z,16.75
2022-11-07T07:44:54.143Z,15.88
2022-11-07T07:47:21.243Z,15.88
2022-11-07T07:49:50.616Z,15.82
2022-11-07T07:52:18.858Z,17.38
2022-11-07T07:54:45.969Z,16.90
2022-11-07T07:57:12.960Z,16.35
2022-11-07T07:59:40.155Z,16.75
2022-11-07T08:02:12.981Z,16.88
2022-11-07T08:04:42.883Z,16.60
2022-11-07T08:07:10.690Z,16.25
2022-11-07T08:09:37.719Z,17.77
2022-11-07T08:12:11.321Z,17.13
2022-11-07T08:14:38.467Z,15.15
2022-11-07T08:17:05.787Z,16.77
2022-11-07T08:19:32.914Z,15.80
2022-11-07T08:22:03.619Z,15.73
2022-11-07T08:24:30.868Z,16.90
2022-11-07T08:27:47.108Z,17.20
2022-11-07T08:29:50.852Z,14.93
2022-11-07T08:32:19.981Z,16.58
2022-11-07T08:34:49.536Z,16.25
2022-11-07T08:37:16.734Z,17.13
2022-11-07T08:39:43.968Z,17.70
2022-11-07T08:42:11.097Z,17.10
2022-11-07T08:44:38.090Z,17.25
2022-11-07T08:47:08.464Z,16.95
2022-11-07T08:49:35.740Z,17.25
2022-11-07T08:52:02.758Z,16.60
2022-11-07T08:54:32.704Z,17.80
2022-11-07T08:56:59.746Z,17.48
2022-11-07T08:59:28.354Z,15.98
2022-11-07T09:02:36.839Z,16.77
2022-11-07T09:05:56.548Z,17.52
2022-11-07T09:33:27.159Z,14.65
2022-11-07T09:40:19.751Z,13.90
2022-11-07T09:47:25.234Z,15.40
2022-11-07T09:57:14.455Z,14.88
2022-11-07T09:57:46.614Z,15.68
2022-11-07T10:10:00.647Z,16.50
2022-11-07T10:13:03.503Z,15.73
2022-11-07T10:16:08.147Z,16.83
2022-11-07T10:19:56.959Z,16.73
2022-11-07T10:36:09.810Z,16.42
2022-11-07T10:42:17.244Z,16.92
2022-11-07T10:44:48.865Z,16.13
2022-11-07T10:47:28.436Z,15.65
2022-11-07T11:45:43.040Z,16.67
2022-11-07T11:48:39.761Z,16.42
2022-11-07T11:53:46.869Z,14.90
2022-11-07T11:56:25.894Z,13.65
2022-11-07T11:59:25.080Z,14.88
2022-11-07T12:02:20.373Z,14.52
2022-11-07T12:05:04.256Z,15.27
2022-11-07T12:07:59.020Z,15.55
2022-11-07T12:10:41.072Z,14.15
2022-11-07T12:13:37.503Z,14.98
2022-11-07T12:18:50.066Z,15.80
2022-11-07T12:21:26.028Z,17.02
2022-11-07T12:24:35.804Z,16.83
2022-11-07T12:27:51.008Z,20.02
2022-11-07T12:30:34.273Z,17.70
2022-11-07T12:33:19.427Z,17.92
2022-11-07T12:36:18.658Z,16.00
2022-11-07T12:39:11.873Z,14.70
2022-11-07T12:41:58.941Z,14.68
2022-11-07T12:44:51.608Z,14.52
2022-11-07T12:47:39.221Z,14.43
2022-11-07T12:50:11.187Z,14.25
2022-11-07T12:52:57.473Z,13.48
2022-11-07T12:55:46.866Z,14.55
2022-11-07T12:58:25.839Z,12.98
2022-11-07T13:00:53.516Z,14.25
2022-11-07T13:03:37.191Z,13.90
2022-11-07T13:06:24.501Z,14.90
2022-11-07T13:09:18.102Z,14.90
2022-11-07T13:11:56.926Z,14.18
2022-11-07T13:14:31.974Z,15.20
2022-11-07T13:16:58.874Z,13.95
2022-11-07T13:19:32.303Z,14.20
2022-11-07T13:22:04.936Z,13.70
2022-11-07T13:24:33.774Z,13.70
2022-11-07T13:27:00.681Z,16.02
2022-11-07T13:29:37.191Z,13.85
2022-11-07T13:32:15.565Z,14.27
2022-11-07T13:34:57.115Z,14.63
2022-11-07T13:37:34.956Z,13.43
2022-11-07T13:40:14.385Z,13.50
2022-11-07T13:42:44.124Z,13.98
2022-11-07T13:45:48.700Z,13.43
2022-11-07T13:48:21.763Z,13.07
2022-11-07T13:51:11.456Z,12.90
2022-11-07T13:53:48.144Z,12.63
2022-11-07T13:56:35.286Z,12.98
2022-11-07T13:59:06.090Z,12.95
2022-11-07T14:01:55.389Z,11.82
2022-11-07T14:04:27.017Z,13.27
2022-11-07T14:06:58.977Z,12.48
2022-11-07T14:09:28.974Z,11.23
2022-11-07T14:11:56.512Z,12.63
2022-11-07T14:14:25.820Z,13.30
2022-11-07T14:16:59.079Z,13.45
2022-11-07T14:19:30.623Z,13.68
2022-11-07T14:21:59.287Z,12.18
2022-11-07T14:24:32.853Z,14.23
2022-11-07T14:27:06.356Z,13.77
2022-11-07T14:29:33.887Z,13.48
2022-11-07T14:32:03.956Z,11.75
2022-11-07T14:34:31.374Z,12.10
2022-11-07T14:37:01.144Z,13.05
2022-11-07T14:39:31.095Z,12.02
2022-11-07T14:42:00.790Z,13.00
2022-11-07T14:44:55.611Z,12.30
2022-11-07T14:47:30.536Z,12.57
2022-11-07T14:50:01.461Z,12.70
2022-11-07T14:52:52.966Z,12.10
2022-11-07T14:55:34.260Z,12.55
2022-11-07T14:58:03.419Z,12.55
2022-11-07T15:00:31.972Z,12.43
2022-11-07T15:03:00.520Z,12.32
2022-11-07T15:05:31.669Z,13.70
2022-11-07T15:08:00.011Z,12.90
2022-11-07T15:10:41.548Z,13.20
2022-11-07T15:13:26.504Z,13.27
2022-11-07T15:16:22.178Z,12.90
2022-11-07T15:18:58.353Z,12.15
2022-11-07T15:21:35.512Z,12.70
2022-11-07T15:24:47.528Z,12.10
2022-11-07T15:27:14.588Z,11.65
2022-11-07T15:29:53.585Z,12.70
2022-11-07T15:32:22.656Z,11.93
2022-11-07T15:37:39.276Z,11.13
2022-11-07T15:40:23.009Z,12.30
2022-11-07T15:42:50.474Z,12.88
2022-11-07T15:45:18.849Z,13.00
2022-11-07T15:47:47.235Z,12.50
2022-11-07T15:50:21.125Z,12.10
2022-11-07T15:52:53.610Z,12.45
2022-11-07T15:55:22.879Z,13.75
2022-11-07T15:57:52.309Z,13.32
2022-11-07T16:00:22.403Z,13.30
2022-11-07T16:02:49.994Z,13.20
2022-11-07T16:05:17.411Z,14.32
2022-11-07T16:07:46.062Z,13.23
2022-11-07T16:10:40.610Z,13.63
2022-11-07T16:13:09.615Z,13.43
2022-11-07T16:15:37.305Z,13.20
2022-11-07T16:18:04.816Z,14.43
2022-11-07T16:20:36.230Z,12.60
2022-11-07T16:23:06.100Z,13.63
2022-11-07T16:25:33.602Z,12.88
2022-11-07T16:28:03.398Z,13.52
2022-11-07T16:30:36.842Z,13.18
2022-11-07T16:33:04.155Z,13.43
2022-11-07T16:35:33.722Z,13.95
2022-11-07T16:38:02.008Z,14.18
2022-11-07T16:40:35.913Z,13.40
2022-11-07T16:43:11.014Z,13.40
2022-11-07T16:45:53.353Z,13.55
2022-11-07T16:48:25.516Z,13.43
2022-11-07T16:50:56.801Z,15.20
2022-11-07T16:53:25.461Z,13.77
2022-11-07T16:56:33.049Z,13.75
2022-11-07T16:59:18.934Z,13.15
2022-11-07T17:01:57.871Z,12.75
2022-11-07T17:08:01.745Z,13.10
2022-11-07T17:10:34.459Z,13.55
2022-11-07T17:13:01.574Z,13.48
2022-11-07T17:15:29.126Z,14.23
2022-11-07T17:18:07.281Z,13.82
2022-11-07T17:20:50.412Z,12.75
2022-11-07T17:23:18.743Z,14.43
2022-11-07T17:25:52.451Z,14.25
2022-11-07T17:28:21.146Z,13.85
2022-11-07T17:30:50.676Z,14.88
2022-11-07T17:33:20.987Z,14.20
2022-11-07T17:35:56.565Z,16.02
2022-11-07T17:38:26.933Z,15.50
2022-11-07T17:41:17.371Z,14.07
2022-11-07T17:43:45.935Z,15.10
2022-11-07T17:46:36.808Z,15.23
2022-11-07T17:49:09.228Z,17.33
2022-11-07T17:51:36.822Z,19.98
2022-11-07T17:54:07.681Z,17.92
2022-11-07T17:56:39.596Z,14.38
2022-11-07T17:59:19.318Z,15.02
2022-11-07T18:02:07.679Z,14.82
2022-11-07T18:04:36.673Z,14.15
2022-11-07T18:10:05.940Z,14.50
2022-11-07T18:12:35.214Z,13.68
2022-11-07T18:15:14.462Z,14.23
2022-11-07T18:18:39.426Z,14.45
2022-11-07T18:20:43.066Z,15.35
2022-11-07T18:23:12.876Z,14.85
2022-11-07T18:25:41.482Z,15.00
2022-11-07T18:28:18.724Z,16.23
2022-11-07T18:30:46.336Z,15.43
2022-11-07T18:33:22.154Z,16.58
2022-11-07T18:35:49.528Z,16.58
2022-11-07T18:38:17.389Z,16.70
2022-11-07T18:41:03.612Z,16.45
2022-11-07T18:45:58.693Z,16.25
2022-11-07T18:48:26.514Z,15.80
2022-11-07T18:51:26.496Z,15.88
2022-11-07T18:54:01.991Z,15.82
2022-11-07T18:56:33.830Z,16.50
2022-11-07T18:59:04.222Z,18.25
2022-11-07T19:01:32.548Z,17.00
2022-11-07T19:04:03.720Z,17.85
2022-11-07T19:06:55.779Z,17.73
2022-11-07T19:09:31.308Z,16.92
2022-11-07T19:17:11.529Z,17.10
2022-11-07T19:19:39.009Z,17.17
2022-11-07T19:22:06.833Z,16.98
2022-11-07T19:24:34.597Z,18.13
2022-11-07T19:27:02.155Z,18.25
2022-11-07T19:29:29.534Z,19.52
2022-11-07T19:31:56.830Z,19.33
2022-11-07T19:34:25.759Z,19.45
2022-11-07T19:36:52.882Z,18.02
2022-11-07T19:39:20.127Z,17.45
2022-11-07T19:41:47.347Z,17.95
2022-11-07T19:44:14.743Z,18.45
2022-11-07T19:46:41.997Z,17.90
2022-11-07T19:49:15.086Z,16.33
2022-11-07T19:51:42.284Z,17.52
2022-11-07T19:54:12.202Z,18.42
2022-11-07T19:56:41.205Z,18.20
2022-11-07T19:59:09.919Z,18.33
2022-11-07T20:01:39.432Z,18.58
2022-11-07T20:04:29.916Z,16.70
2022-11-07T20:06:57.410Z,16.33
2022-11-07T20:09:25.636Z,20.33
2022-11-07T20:11:52.828Z,19.58
2022-11-07T20:14:25.002Z,16.98
2022-11-07T20:17:01.064Z,18.23
2022-11-07T20:19:30.730Z,17.38
2022-11-07T20:21:58.315Z,18.80
2022-11-07T20:24:33.194Z,18.38
2022-11-07T20:27:02.790Z,18.05
2022-11-07T20:29:32.713Z,17.25
2022-11-07T20:31:59.821Z,17.42
2022-11-07T20:34:26.853Z,17.90
2022-11-07T20:36:54.672Z,18.00
2022-11-07T20:39:23.935Z,19.42
2022-11-07T20:41:51.142Z,17.63
2022-11-07T20:44:18.396Z,18.48
2022-11-07T20:46:45.696Z,18.50
2022-11-07T20:49:15.232Z,19.42
2022-11-07T20:51:45.828Z,17.23
2022-11-07T20:54:17.033Z,19.05
2022-11-07T20:56:46.498Z,19.63
2022-11-07T20:59:18.101Z,18.85
2022-11-07T21:01:56.565Z,16.63
2022-11-07T21:04:28.318Z,18.23
2022-11-07T21:06:58.810Z,18.95
2022-11-07T21:09:28.398Z,16.60
2022-11-07T21:11:56.318Z,18.80
2022-11-07T21:14:31.717Z,18.00
2022-11-07T21:17:05.074Z,17.10
2022-11-07T21:19:35.387Z,17.70
2022-11-07T21:22:02.597Z,18.60
2022-11-07T21:24:37.870Z,18.67
2022-11-07T21:27:06.116Z,20.52
2022-11-07T21:29:33.619Z,18.00
2022-11-07T21:32:02.683Z,16.73
2022-11-07T21:34:30.025Z,17.27
2022-11-07T21:36:56.927Z,18.83
2022-11-07T21:39:24.145Z,17.65
2022-11-07T21:41:51.690Z,18.17
2022-11-07T21:44:18.718Z,18.27
2022-11-07T21:46:45.970Z,17.25
2022-11-07T21:49:17.334Z,17.95
2022-11-07T21:51:50.717Z,16.25
2022-11-07T21:54:25.667Z,18.88
2022-11-07T21:56:53.246Z,16.92
2022-11-07T21:59:20.588Z,18.15
2022-11-07T22:01:51.374Z,18.77
2022-11-07T22:04:18.819Z,17.75
2022-11-07T22:06:52.281Z,16.63
2022-11-07T22:09:25.583Z,18.63
2022-11-07T22:11:52.864Z,17.00
2022-11-07T22:14:22.854Z,16.85
2022-11-07T22:16:56.599Z,18.02
2022-11-07T22:19:24.008Z,17.02
2022-11-07T22:21:51.099Z,17.65
2022-11-07T22:24:18.270Z,16.50
2022-11-07T22:26:45.565Z,16.75
2022-11-07T22:29:12.794Z,16.83
2022-11-07T22:31:39.800Z,17.10
2022-11-07T22:34:07.057Z,18.35
2022-11-07T22:36:34.116Z,17.10
2022-11-07T22:39:01.939Z,17.45
2022-11-07T22:41:29.569Z,18.88
2022-11-07T22:43:57.793Z,16.33
2022-11-07T22:46:28.994Z,17.15
2022-11-07T22:48:58.741Z,18.23
2022-11-07T22:51:32.832Z,15.50
2022-11-07T22:54:06.356Z,18.25
2022-11-07T22:56:35.536Z,17.75
2022-11-07T22:59:03.384Z,17.00
2022-11-07T23:01:34.057Z,17.85
2022-11-07T23:04:01.380Z,17.30
2022-11-07T23:06:29.885Z,16.15
2022-11-07T23:08:58.399Z,14.32
2022-11-07T23:11:52.073Z,17.13
2022-11-07T23:14:21.248Z,16.63
2022-11-07T23:16:55.817Z,16.35
2022-11-07T23:19:26.090Z,17.05
2022-11-07T23:21:54.970Z,16.77
2022-11-07T23:24:22.636Z,15.30
2022-11-07T23:26:50.308Z,16.45
2022-11-07T23:29:23.296Z,17.48
2022-11-07T23:31:51.914Z,16.65
2022-11-07T23:34:21.446Z,16.30
2022-11-07T23:36:52.233Z,16.30
2022-11-07T23:39:21.567Z,14.57
2022-11-07T23:41:48.961Z,16.20
2022-11-07T23:44:16.304Z,15.55
2022-11-07T23:47:02.858Z,16.58
2022-11-07T23:49:48.759Z,16.00
2022-11-07T23:52:16.492Z,16.80
2022-11-07T23:55:01.830Z,17.08
2022-11-07T23:57:28.912Z,16.20
